Terminal Aerodrome Forecast
Issued by NWS

Home | Current Version | Previous Version | Text Only | Print | Product List | Glossary Off
Versions: 1 2 3 4 5 6 7 8 9 10 11 12 13 14 15 16 17 18 19 20

000
FTUS43 KGRB 291538 AAA
TAFATW
TAF AMD
KATW 291538Z 2916/3012 21009KT P6SM SCT011 OVC030
      TEMPO 2916/2918 3SM -SHRA BKN011
     FM291800 25013G20KT P6SM BKN035 BKN060
      TEMPO 2918/2920 -SHRA BKN020
     FM300100 26006KT P6SM SCT040=

USA.gov is the U.S. government's official web portal to all federal, state and local government web resources and services.